createdAt,value
2022-09-20T00:03:55.137Z,8.39
2022-09-20T00:09:01.357Z,8.41
2022-09-20T00:14:06.019Z,8.32
2022-09-20T00:19:09.869Z,8.02
2022-09-20T00:24:14.259Z,7.90
2022-09-20T00:29:17.019Z,7.79
2022-09-20T00:34:37.307Z,7.77
2022-09-20T00:39:41.462Z,7.65
2022-09-20T00:44:48.907Z,7.56
2022-09-20T00:49:54.299Z,7.46
2022-09-20T00:54:59.462Z,7.42
2022-09-20T01:00:03.937Z,7.36
2022-09-20T01:05:09.492Z,7.30
2022-09-20T01:10:13.618Z,7.26
2022-09-20T01:15:16.873Z,7.30
2022-09-20T01:20:23.753Z,7.26
2022-09-20T01:25:45.084Z,7.26
2022-09-20T01:30:53.349Z,7.20
2022-09-20T01:35:59.273Z,7.19
2022-09-20T01:41:09.012Z,7.11
2022-09-20T01:46:23.097Z,7.00
2022-09-20T01:51:53.302Z,7.06
2022-09-20T01:57:32.459Z,7.02
2022-09-20T02:03:07.637Z,6.96
2022-09-20T02:08:29.801Z,6.90
2022-09-20T02:13:41.294Z,6.88
2022-09-20T02:19:03.308Z,6.87
2022-09-20T02:24:17.658Z,6.86
2022-09-20T02:29:33.384Z,6.81
2022-09-20T02:34:56.427Z,6.76
2022-09-20T02:40:23.699Z,6.63
2022-09-20T02:45:34.108Z,6.50
2022-09-20T02:50:46.461Z,6.45
2022-09-20T02:56:02.302Z,6.33
2022-09-20T03:01:14.271Z,6.12
2022-09-20T03:06:25.519Z,6.07
2022-09-20T03:11:36.473Z,6.03
2022-09-20T03:16:52.199Z,6.05
2022-09-20T03:22:04.565Z,6.06
2022-09-20T03:27:18.365Z,5.99
2022-09-20T03:32:35.269Z,5.88
2022-09-20T03:37:58.426Z,5.83
2022-09-20T03:43:11.562Z,5.86
2022-09-20T03:48:36.997Z,5.83
2022-09-20T03:54:04.869Z,5.75
2022-09-20T03:59:27.792Z,5.81
2022-09-20T04:04:40.661Z,5.85
2022-09-20T04:10:13.722Z,5.91
2022-09-20T04:15:31.287Z,5.90
2022-09-20T04:20:41.203Z,5.82
2022-09-20T04:25:48.716Z,5.82
2022-09-20T04:30:56.707Z,5.76
2022-09-20T04:36:30.204Z,5.63
2022-09-20T04:42:08.566Z,5.60
2022-09-20T04:47:46.565Z,5.47
2022-09-20T04:53:18.377Z,5.39
2022-09-20T04:58:56.943Z,5.32
2022-09-20T05:04:29.862Z,5.26
2022-09-20T05:09:53.573Z,5.21
2022-09-20T05:15:21.027Z,5.19
2022-09-20T05:20:55.112Z,5.16
2022-09-20T05:26:11.818Z,5.11
2022-09-20T05:31:19.375Z,5.11
2022-09-20T05:36:34.539Z,5.01
2022-09-20T05:41:47.196Z,5.00
2022-09-20T05:46:58.711Z,5.08
2022-09-20T05:52:15.417Z,5.19
2022-09-20T05:57:29.923Z,5.30
2022-09-20T06:02:41.292Z,5.43
2022-09-20T06:07:57.003Z,5.52
2022-09-20T06:13:13.061Z,5.64
2022-09-20T06:18:25.313Z,5.68
2022-09-20T06:23:28.752Z,5.69
2022-09-20T06:28:35.954Z,5.76
2022-09-20T06:33:45.034Z,5.81
2022-09-20T06:39:17.630Z,5.94
2022-09-20T06:44:21.744Z,6.05
2022-09-20T06:49:29.115Z,6.12
2022-09-20T06:54:31.900Z,6.25
2022-09-20T06:59:36.011Z,6.47
2022-09-20T07:04:39.066Z,6.77
2022-09-20T07:09:41.796Z,7.22
2022-09-20T07:14:45.889Z,7.86
2022-09-20T07:19:48.639Z,8.34
2022-09-20T07:24:51.390Z,8.64
2022-09-20T07:29:56.067Z,8.97
2022-09-20T07:34:59.166Z,9.09
2022-09-20T07:40:02.335Z,9.32
2022-09-20T07:45:07.877Z,9.62
2022-09-20T07:50:11.679Z,9.82
2022-09-20T07:55:14.579Z,9.91
2022-09-20T08:00:19.111Z,10.05
2022-09-20T08:05:21.830Z,10.23
2022-09-20T08:10:25.232Z,10.35
2022-09-20T08:15:29.759Z,10.38
2022-09-20T08:20:33.422Z,10.42
2022-09-20T08:25:36.300Z,10.51
2022-09-20T08:30:40.625Z,10.67
2022-09-20T08:35:43.366Z,10.79
2022-09-20T08:40:46.556Z,10.88
2022-09-20T08:45:50.880Z,10.95
2022-09-20T08:50:53.734Z,11.09
2022-09-20T08:55:57.841Z,11.23
2022-09-20T09:01:02.265Z,11.28
2022-09-20T09:06:10.320Z,11.31
2022-09-20T09:11:16.662Z,11.36
2022-09-20T09:16:28.578Z,11.49
2022-09-20T09:21:34.486Z,11.57
2022-09-20T09:26:39.208Z,11.68
2022-09-20T09:31:45.086Z,11.81
2022-09-20T09:36:47.952Z,11.90
2022-09-20T09:41:51.039Z,12.04
2022-09-20T09:46:56.515Z,12.20
2022-09-20T09:52:13.049Z,12.28
2022-09-20T09:57:38.542Z,12.36
2022-09-20T10:02:50.776Z,12.53
2022-09-20T10:08:00.924Z,12.63
2022-09-20T10:13:19.914Z,12.70
2022-09-20T10:18:35.660Z,12.83
2022-09-20T10:24:08.837Z,12.92
2022-09-20T10:29:23.106Z,13.03
2022-09-20T10:35:07.187Z,13.21
2022-09-20T10:40:26.010Z,13.35
2022-09-20T10:51:02.362Z,13.70
2022-09-20T10:56:23.761Z,13.75
2022-09-20T11:01:34.634Z,13.80
2022-09-20T11:06:50.364Z,14.00
2022-09-20T11:11:59.975Z,14.07
2022-09-20T11:17:09.404Z,14.22
2022-09-20T11:22:16.937Z,14.32
2022-09-20T11:27:29.618Z,14.40
2022-09-20T11:32:41.839Z,14.52
2022-09-20T11:37:52.206Z,14.68
2022-09-20T11:42:58.641Z,14.80
2022-09-20T11:48:08.011Z,14.87
2022-09-20T11:53:26.138Z,14.85
2022-09-20T11:58:31.604Z,14.88
2022-09-20T12:03:37.872Z,15.09
2022-09-20T12:08:42.951Z,15.24
2022-09-20T12:13:59.182Z,15.34
2022-09-20T12:19:07.060Z,15.24
2022-09-20T12:24:22.745Z,15.15
2022-09-20T12:30:05.010Z,15.15
2022-09-20T12:35:44.481Z,15.44
2022-09-20T12:41:00.399Z,15.81
2022-09-20T12:46:09.878Z,16.11
2022-09-20T12:51:40.434Z,16.02
2022-09-20T12:56:46.672Z,16.20
2022-09-20T13:01:51.114Z,16.39
2022-09-20T13:07:33.204Z,16.63
2022-09-20T13:12:40.332Z,16.69
2022-09-20T13:17:45.794Z,16.80
2022-09-20T13:22:49.199Z,16.55
2022-09-20T13:27:58.352Z,16.56
2022-09-20T13:38:32.505Z,17.28
2022-09-20T13:43:40.852Z,17.34
2022-09-20T13:48:43.929Z,17.44
2022-09-20T13:53:48.487Z,17.46
2022-09-20T13:58:52.624Z,17.73
2022-09-20T14:03:56.169Z,17.81
2022-09-20T14:09:05.969Z,18.19
2022-09-20T14:14:17.548Z,18.20
2022-09-20T14:19:31.289Z,18.50
2022-09-20T14:24:37.237Z,18.40
2022-09-20T14:29:43.070Z,18.55
2022-09-20T14:34:48.037Z,18.42
2022-09-20T14:39:56.182Z,18.01
2022-09-20T14:44:59.569Z,18.11
2022-09-20T14:50:03.874Z,18.20
2022-09-20T14:55:22.905Z,17.77
2022-09-20T15:00:27.070Z,17.62
2022-09-20T15:05:30.002Z,18.02
2022-09-20T15:10:34.141Z,17.96
2022-09-20T15:15:36.912Z,17.88
2022-09-20T15:20:39.648Z,18.32
2022-09-20T15:25:43.815Z,18.79
2022-09-20T15:30:47.430Z,18.79
2022-09-20T15:35:50.658Z,18.95
2022-09-20T15:40:55.348Z,18.83
2022-09-20T15:46:00.530Z,18.66
2022-09-20T15:51:06.625Z,19.06
2022-09-20T15:56:19.184Z,19.36
2022-09-20T16:01:22.059Z,19.46
2022-09-20T16:06:25.939Z,19.48
2022-09-20T16:11:30.125Z,19.54
2022-09-20T16:16:39.166Z,19.30
2022-09-20T16:21:44.741Z,19.53
2022-09-20T16:26:48.799Z,19.16
2022-09-20T16:31:52.263Z,18.93
2022-09-20T16:36:58.526Z,19.02
2022-09-20T16:42:04.833Z,18.89
2022-09-20T16:47:11.702Z,18.22
2022-09-20T16:52:14.468Z,17.64
2022-09-20T16:57:18.822Z,17.15
2022-09-20T17:02:21.540Z,16.61
2022-09-20T17:07:24.329Z,16.35
2022-09-20T17:12:32.566Z,15.91
2022-09-20T17:17:35.395Z,15.59
2022-09-20T17:22:38.190Z,15.30
2022-09-20T17:27:42.291Z,14.98
2022-09-20T17:32:50.430Z,14.74
2022-09-20T17:37:53.203Z,14.54
2022-09-20T17:42:57.678Z,14.31
2022-09-20T17:48:00.414Z,13.99
2022-09-20T17:53:03.152Z,13.73
2022-09-20T17:58:07.761Z,13.60
2022-09-20T18:03:10.473Z,13.41
2022-09-20T18:08:13.807Z,13.27
2022-09-20T18:13:18.080Z,13.10
2022-09-20T18:18:20.921Z,13.01
2022-09-20T18:23:23.690Z,12.96
2022-09-20T18:28:28.184Z,12.91
2022-09-20T18:33:31.700Z,12.87
2022-09-20T18:38:34.466Z,12.83
2022-09-20T18:43:38.627Z,12.81
2022-09-20T18:48:41.359Z,12.78
2022-09-20T18:53:44.084Z,12.73
2022-09-20T18:58:48.536Z,12.74
2022-09-20T19:04:01.233Z,12.74
2022-09-20T19:09:09.423Z,12.74
2022-09-20T19:14:20.182Z,12.77
2022-09-20T19:19:39.266Z,12.77
2022-09-20T19:25:03.373Z,12.77
2022-09-20T19:30:09.079Z,12.69
2022-09-20T19:35:19.958Z,12.64
2022-09-20T19:40:29.914Z,12.50
2022-09-20T19:45:44.534Z,12.44
2022-09-20T19:50:52.543Z,12.37
2022-09-20T19:56:00.770Z,12.36
2022-09-20T20:01:05.490Z,12.27
2022-09-20T20:06:17.599Z,12.18
2022-09-20T20:11:34.064Z,12.11
2022-09-20T20:16:51.859Z,12.07
2022-09-20T20:21:59.354Z,11.97
2022-09-20T20:27:02.198Z,11.97
2022-09-20T20:32:06.427Z,11.94
2022-09-20T20:37:09.843Z,11.93
2022-09-20T20:42:12.877Z,11.92
2022-09-20T20:47:17.098Z,11.90
2022-09-20T20:52:19.942Z,11.87
2022-09-20T20:57:22.676Z,11.84
2022-09-20T21:02:26.842Z,11.81
2022-09-20T21:07:29.641Z,11.77
2022-09-20T21:12:32.378Z,11.73
2022-09-20T21:17:36.516Z,11.71
2022-09-20T21:22:39.231Z,11.66
2022-09-20T21:27:42.082Z,11.64
2022-09-20T21:32:46.181Z,11.58
2022-09-20T21:37:49.392Z,11.58
2022-09-20T21:42:53.069Z,11.52
2022-09-20T21:47:57.422Z,11.52
2022-09-20T21:53:00.153Z,11.53
2022-09-20T21:58:03.278Z,11.55
2022-09-20T22:03:07.705Z,11.49
2022-09-20T22:08:10.590Z,11.44
2022-09-20T22:13:13.313Z,11.40
2022-09-20T22:18:17.517Z,11.34
2022-09-20T22:23:20.383Z,11.32
2022-09-20T22:28:23.092Z,11.30
2022-09-20T22:33:27.169Z,11.26
2022-09-20T22:38:31.387Z,11.14
2022-09-20T22:43:35.451Z,11.14
2022-09-20T22:48:40.255Z,11.14
2022-09-20T22:53:43.361Z,11.04
2022-09-20T22:58:48.051Z,10.95
2022-09-20T23:03:56.702Z,10.87
2022-09-20T23:09:01.858Z,10.89
2022-09-20T23:14:06.020Z,10.88
2022-09-20T23:19:10.941Z,10.76
2022-09-20T23:24:17.192Z,10.82
2022-09-20T23:29:19.878Z,10.75
2022-09-20T23:34:24.030Z,10.68
2022-09-20T23:39:26.874Z,10.63
2022-09-20T23:44:29.552Z,10.60
2022-09-20T23:49:33.630Z,10.61
2022-09-20T23:54:36.320Z,10.57
2022-09-20T23:59:39.285Z,10.57
